sensor_id;sensor_type;location;lat;lon;timestamp;P1;durP1;ratioP1;P2;durP2;ratioP2
9260;SDS011;4667;42.726;23.252;2023-03-25T00:02:03;8.67;;;6.70;;
9260;SDS011;4667;42.726;23.252;2023-03-25T00:04:31;12.60;;;7.00;;
9260;SDS011;4667;42.726;23.252;2023-03-25T00:06:59;8.67;;;7.07;;
9260;SDS011;4667;42.726;23.252;2023-03-25T00:09:26;10.53;;;7.27;;
9260;SDS011;4667;42.726;23.252;2023-03-25T00:11:53;8.87;;;6.97;;
9260;SDS011;4667;42.726;23.252;2023-03-25T00:14:20;7.47;;;5.93;;
9260;SDS011;4667;42.726;23.252;2023-03-25T00:16:49;10.00;;;5.80;;
9260;SDS011;4667;42.726;23.252;2023-03-25T00:19:17;9.10;;;7.20;;
9260;SDS011;4667;42.726;23.252;2023-03-25T00:21:46;9.60;;;6.83;;
9260;SDS011;4667;42.726;23.252;2023-03-25T00:24:14;7.73;;;5.80;;
9260;SDS011;4667;42.726;23.252;2023-03-25T00:26:42;10.07;;;6.47;;
9260;SDS011;4667;42.726;23.252;2023-03-25T00:29:10;10.73;;;7.17;;
9260;SDS011;4667;42.726;23.252;2023-03-25T00:31:37;12.17;;;7.63;;
9260;SDS011;4667;42.726;23.252;2023-03-25T00:34:04;9.90;;;6.13;;
9260;SDS011;4667;42.726;23.252;2023-03-25T00:36:30;10.20;;;6.63;;
9260;SDS011;4667;42.726;23.252;2023-03-25T00:38:59;10.07;;;7.17;;
9260;SDS011;4667;42.726;23.252;2023-03-25T00:41:25;13.17;;;6.80;;
9260;SDS011;4667;42.726;23.252;2023-03-25T00:43:53;11.70;;;6.90;;
9260;SDS011;4667;42.726;23.252;2023-03-25T00:46:21;12.63;;;7.10;;
9260;SDS011;4667;42.726;23.252;2023-03-25T00:48:48;7.83;;;5.87;;
9260;SDS011;4667;42.726;23.252;2023-03-25T00:51:16;9.07;;;6.10;;
9260;SDS011;4667;42.726;23.252;2023-03-25T00:53:45;9.60;;;6.07;;
9260;SDS011;4667;42.726;23.252;2023-03-25T00:56:14;12.83;;;6.83;;
9260;SDS011;4667;42.726;23.252;2023-03-25T00:58:41;11.17;;;6.77;;
9260;SDS011;4667;42.726;23.252;2023-03-25T01:01:09;9.00;;;5.13;;
9260;SDS011;4667;42.726;23.252;2023-03-25T01:03:37;12.03;;;6.80;;
9260;SDS011;4667;42.726;23.252;2023-03-25T01:06:08;9.47;;;6.37;;
9260;SDS011;4667;42.726;23.252;2023-03-25T01:08:35;9.23;;;6.67;;
9260;SDS011;4667;42.726;23.252;2023-03-25T01:11:02;9.83;;;6.50;;
9260;SDS011;4667;42.726;23.252;2023-03-25T01:13:31;9.67;;;6.63;;
9260;SDS011;4667;42.726;23.252;2023-03-25T01:15:58;11.00;;;7.47;;
9260;SDS011;4667;42.726;23.252;2023-03-25T01:18:25;9.23;;;5.47;;
9260;SDS011;4667;42.726;23.252;2023-03-25T01:20:51;7.53;;;5.80;;
9260;SDS011;4667;42.726;23.252;2023-03-25T01:23:18;9.87;;;7.13;;
9260;SDS011;4667;42.726;23.252;2023-03-25T01:25:45;12.53;;;6.47;;
9260;SDS011;4667;42.726;23.252;2023-03-25T01:28:11;9.80;;;6.80;;
9260;SDS011;4667;42.726;23.252;2023-03-25T01:30:40;12.77;;;7.87;;
9260;SDS011;4667;42.726;23.252;2023-03-25T01:33:06;10.63;;;6.97;;
9260;SDS011;4667;42.726;23.252;2023-03-25T01:35:33;9.30;;;6.97;;
9260;SDS011;4667;42.726;23.252;2023-03-25T01:38:00;10.10;;;7.07;;
9260;SDS011;4667;42.726;23.252;2023-03-25T01:40:26;7.30;;;6.47;;
9260;SDS011;4667;42.726;23.252;2023-03-25T01:42:54;9.33;;;7.20;;
9260;SDS011;4667;42.726;23.252;2023-03-25T01:45:22;9.40;;;7.33;;
9260;SDS011;4667;42.726;23.252;2023-03-25T01:47:54;11.27;;;7.60;;
9260;SDS011;4667;42.726;23.252;2023-03-25T01:50:27;10.87;;;7.53;;
9260;SDS011;4667;42.726;23.252;2023-03-25T01:52:56;8.90;;;6.23;;
9260;SDS011;4667;42.726;23.252;2023-03-25T01:55:26;12.40;;;5.77;;
9260;SDS011;4667;42.726;23.252;2023-03-25T01:57:55;8.80;;;6.77;;
9260;SDS011;4667;42.726;23.252;2023-03-25T02:00:23;7.90;;;6.07;;
9260;SDS011;4667;42.726;23.252;2023-03-25T02:02:52;9.80;;;5.73;;
9260;SDS011;4667;42.726;23.252;2023-03-25T02:05:25;11.30;;;6.00;;
9260;SDS011;4667;42.726;23.252;2023-03-25T02:08:00;8.37;;;6.03;;
9260;SDS011;4667;42.726;23.252;2023-03-25T02:10:29;7.53;;;6.23;;
9260;SDS011;4667;42.726;23.252;2023-03-25T02:12:57;10.40;;;6.70;;
9260;SDS011;4667;42.726;23.252;2023-03-25T02:15:25;10.50;;;5.80;;
9260;SDS011;4667;42.726;23.252;2023-03-25T02:18:01;10.60;;;6.73;;
9260;SDS011;4667;42.726;23.252;2023-03-25T02:27:17;7.83;;;5.90;;
9260;SDS011;4667;42.726;23.252;2023-03-25T02:29:56;8.03;;;5.77;;
9260;SDS011;4667;42.726;23.252;2023-03-25T02:32:48;7.30;;;6.10;;
9260;SDS011;4667;42.726;23.252;2023-03-25T02:35:40;6.70;;;5.50;;
9260;SDS011;4667;42.726;23.252;2023-03-25T02:38:35;9.83;;;6.17;;
9260;SDS011;4667;42.726;23.252;2023-03-25T02:41:10;11.33;;;5.80;;
9260;SDS011;4667;42.726;23.252;2023-03-25T02:43:46;7.10;;;5.63;;
9260;SDS011;4667;42.726;23.252;2023-03-25T02:46:18;8.30;;;6.53;;
9260;SDS011;4667;42.726;23.252;2023-03-25T02:48:49;13.57;;;6.33;;
9260;SDS011;4667;42.726;23.252;2023-03-25T02:51:22;7.87;;;5.80;;
9260;SDS011;4667;42.726;23.252;2023-03-25T02:53:55;8.43;;;5.93;;
9260;SDS011;4667;42.726;23.252;2023-03-25T02:56:25;6.67;;;5.43;;
9260;SDS011;4667;42.726;23.252;2023-03-25T02:58:56;7.57;;;6.17;;
9260;SDS011;4667;42.726;23.252;2023-03-25T03:01:25;7.87;;;5.93;;
9260;SDS011;4667;42.726;23.252;2023-03-25T03:03:52;10.10;;;5.97;;
9260;SDS011;4667;42.726;23.252;2023-03-25T03:06:19;8.53;;;5.37;;
9260;SDS011;4667;42.726;23.252;2023-03-25T03:11:41;8.47;;;5.90;;
9260;SDS011;4667;42.726;23.252;2023-03-25T03:14:23;6.77;;;5.00;;
9260;SDS011;4667;42.726;23.252;2023-03-25T03:17:02;6.20;;;5.20;;
9260;SDS011;4667;42.726;23.252;2023-03-25T03:19:37;8.00;;;5.80;;
9260;SDS011;4667;42.726;23.252;2023-03-25T03:22:12;7.43;;;5.40;;
9260;SDS011;4667;42.726;23.252;2023-03-25T03:24:52;12.43;;;6.13;;
9260;SDS011;4667;42.726;23.252;2023-03-25T03:27:27;10.93;;;6.87;;
9260;SDS011;4667;42.726;23.252;2023-03-25T03:30:00;6.73;;;5.10;;
9260;SDS011;4667;42.726;23.252;2023-03-25T03:32:34;9.73;;;5.77;;
9260;SDS011;4667;42.726;23.252;2023-03-25T03:35:09;11.70;;;7.20;;
9260;SDS011;4667;42.726;23.252;2023-03-25T03:37:41;11.10;;;5.57;;
9260;SDS011;4667;42.726;23.252;2023-03-25T03:40:15;10.50;;;7.13;;
9260;SDS011;4667;42.726;23.252;2023-03-25T03:42:46;11.70;;;6.73;;
9260;SDS011;4667;42.726;23.252;2023-03-25T03:45:18;10.93;;;7.13;;
9260;SDS011;4667;42.726;23.252;2023-03-25T03:47:50;9.17;;;6.87;;
9260;SDS011;4667;42.726;23.252;2023-03-25T03:50:20;10.53;;;6.97;;
9260;SDS011;4667;42.726;23.252;2023-03-25T03:52:52;10.40;;;6.37;;
9260;SDS011;4667;42.726;23.252;2023-03-25T03:55:29;12.90;;;6.93;;
9260;SDS011;4667;42.726;23.252;2023-03-25T03:58:03;14.43;;;6.60;;
9260;SDS011;4667;42.726;23.252;2023-03-25T04:00:35;12.47;;;8.03;;
9260;SDS011;4667;42.726;23.252;2023-03-25T04:03:08;16.20;;;7.93;;
9260;SDS011;4667;42.726;23.252;2023-03-25T04:05:41;20.03;;;8.20;;
9260;SDS011;4667;42.726;23.252;2023-03-25T04:08:11;8.23;;;7.30;;
9260;SDS011;4667;42.726;23.252;2023-03-25T04:10:48;10.00;;;7.27;;
9260;SDS011;4667;42.726;23.252;2023-03-25T04:13:18;11.17;;;7.07;;
9260;SDS011;4667;42.726;23.252;2023-03-25T04:15:47;14.93;;;7.40;;
9260;SDS011;4667;42.726;23.252;2023-03-25T04:18:14;10.53;;;6.87;;
9260;SDS011;4667;42.726;23.252;2023-03-25T04:20:41;9.47;;;7.30;;
9260;SDS011;4667;42.726;23.252;2023-03-25T04:23:10;11.10;;;7.10;;
9260;SDS011;4667;42.726;23.252;2023-03-25T04:25:40;9.97;;;7.07;;
9260;SDS011;4667;42.726;23.252;2023-03-25T04:28:08;10.47;;;7.17;;
9260;SDS011;4667;42.726;23.252;2023-03-25T04:30:38;8.50;;;6.17;;
9260;SDS011;4667;42.726;23.252;2023-03-25T04:33:05;10.27;;;7.47;;
9260;SDS011;4667;42.726;23.252;2023-03-25T04:35:32;11.40;;;7.70;;
9260;SDS011;4667;42.726;23.252;2023-03-25T04:37:59;8.57;;;6.73;;
9260;SDS011;4667;42.726;23.252;2023-03-25T04:40:26;11.97;;;7.50;;
9260;SDS011;4667;42.726;23.252;2023-03-25T04:42:52;11.47;;;7.50;;
9260;SDS011;4667;42.726;23.252;2023-03-25T04:45:22;9.70;;;7.10;;
9260;SDS011;4667;42.726;23.252;2023-03-25T04:47:51;9.17;;;6.33;;
9260;SDS011;4667;42.726;23.252;2023-03-25T04:50:20;7.60;;;6.20;;
9260;SDS011;4667;42.726;23.252;2023-03-25T04:52:48;10.70;;;7.30;;
9260;SDS011;4667;42.726;23.252;2023-03-25T04:55:17;11.33;;;6.73;;
9260;SDS011;4667;42.726;23.252;2023-03-25T04:57:44;11.00;;;7.03;;
9260;SDS011;4667;42.726;23.252;2023-03-25T05:00:12;15.70;;;6.70;;
9260;SDS011;4667;42.726;23.252;2023-03-25T05:02:44;7.27;;;5.63;;
9260;SDS011;4667;42.726;23.252;2023-03-25T05:05:13;10.20;;;6.63;;
9260;SDS011;4667;42.726;23.252;2023-03-25T05:07:42;10.00;;;7.07;;
9260;SDS011;4667;42.726;23.252;2023-03-25T05:25:39;12.23;;;7.07;;
9260;SDS011;4667;42.726;23.252;2023-03-25T05:28:06;14.67;;;7.93;;
9260;SDS011;4667;42.726;23.252;2023-03-25T05:30:34;9.47;;;6.87;;
9260;SDS011;4667;42.726;23.252;2023-03-25T05:33:03;16.20;;;7.47;;
9260;SDS011;4667;42.726;23.252;2023-03-25T05:35:30;10.57;;;5.40;;
9260;SDS011;4667;42.726;23.252;2023-03-25T05:37:57;12.93;;;6.37;;
9260;SDS011;4667;42.726;23.252;2023-03-25T05:40:24;12.13;;;7.63;;
9260;SDS011;4667;42.726;23.252;2023-03-25T05:42:52;15.50;;;6.80;;
9260;SDS011;4667;42.726;23.252;2023-03-25T05:45:20;11.03;;;6.43;;
9260;SDS011;4667;42.726;23.252;2023-03-25T05:47:47;8.17;;;6.67;;
9260;SDS011;4667;42.726;23.252;2023-03-25T05:53:38;12.80;;;7.43;;
9260;SDS011;4667;42.726;23.252;2023-03-25T05:56:06;12.17;;;8.40;;
9260;SDS011;4667;42.726;23.252;2023-03-25T05:58:39;12.03;;;8.10;;
9260;SDS011;4667;42.726;23.252;2023-03-25T06:01:06;16.97;;;7.80;;
9260;SDS011;4667;42.726;23.252;2023-03-25T06:03:38;20.10;;;9.43;;
9260;SDS011;4667;42.726;23.252;2023-03-25T06:06:06;15.00;;;8.93;;
9260;SDS011;4667;42.726;23.252;2023-03-25T06:08:38;18.47;;;9.17;;
9260;SDS011;4667;42.726;23.252;2023-03-25T06:11:05;15.23;;;9.00;;
9260;SDS011;4667;42.726;23.252;2023-03-25T06:13:33;21.43;;;9.47;;
9260;SDS011;4667;42.726;23.252;2023-03-25T06:16:05;19.93;;;8.50;;
9260;SDS011;4667;42.726;23.252;2023-03-25T06:18:33;17.80;;;8.80;;
9260;SDS011;4667;42.726;23.252;2023-03-25T06:21:02;18.80;;;8.80;;
9260;SDS011;4667;42.726;23.252;2023-03-25T06:23:30;12.93;;;7.73;;
9260;SDS011;4667;42.726;23.252;2023-03-25T06:26:00;12.90;;;9.13;;
9260;SDS011;4667;42.726;23.252;2023-03-25T06:28:28;12.30;;;8.57;;
9260;SDS011;4667;42.726;23.252;2023-03-25T06:30:55;12.93;;;9.03;;
9260;SDS011;4667;42.726;23.252;2023-03-25T06:33:23;15.53;;;8.47;;
9260;SDS011;4667;42.726;23.252;2023-03-25T06:35:50;17.37;;;9.33;;
9260;SDS011;4667;42.726;23.252;2023-03-25T06:38:19;13.73;;;8.87;;
9260;SDS011;4667;42.726;23.252;2023-03-25T06:40:46;17.47;;;9.07;;
9260;SDS011;4667;42.726;23.252;2023-03-25T06:43:13;13.83;;;8.60;;
9260;SDS011;4667;42.726;23.252;2023-03-25T06:45:41;13.33;;;7.60;;
9260;SDS011;4667;42.726;23.252;2023-03-25T06:48:08;15.23;;;7.83;;
9260;SDS011;4667;42.726;23.252;2023-03-25T06:50:36;14.63;;;8.50;;
9260;SDS011;4667;42.726;23.252;2023-03-25T06:53:02;12.27;;;7.73;;
9260;SDS011;4667;42.726;23.252;2023-03-25T06:55:29;12.70;;;7.77;;
9260;SDS011;4667;42.726;23.252;2023-03-25T06:57:56;17.27;;;8.93;;
9260;SDS011;4667;42.726;23.252;2023-03-25T07:00:23;14.43;;;7.70;;
9260;SDS011;4667;42.726;23.252;2023-03-25T07:08:04;14.43;;;7.13;;
9260;SDS011;4667;42.726;23.252;2023-03-25T07:10:32;15.60;;;7.60;;
9260;SDS011;4667;42.726;23.252;2023-03-25T07:12:59;12.10;;;7.07;;
9260;SDS011;4667;42.726;23.252;2023-03-25T07:15:26;11.50;;;7.50;;
9260;SDS011;4667;42.726;23.252;2023-03-25T07:17:52;13.77;;;6.77;;
9260;SDS011;4667;42.726;23.252;2023-03-25T07:20:19;11.03;;;7.13;;
9260;SDS011;4667;42.726;23.252;2023-03-25T07:22:46;15.13;;;9.07;;
9260;SDS011;4667;42.726;23.252;2023-03-25T07:25:14;13.30;;;7.70;;
9260;SDS011;4667;42.726;23.252;2023-03-25T07:27:41;14.63;;;7.03;;
9260;SDS011;4667;42.726;23.252;2023-03-25T07:30:08;16.10;;;7.53;;
9260;SDS011;4667;42.726;23.252;2023-03-25T07:32:36;13.93;;;8.07;;
9260;SDS011;4667;42.726;23.252;2023-03-25T07:35:03;17.63;;;7.70;;
9260;SDS011;4667;42.726;23.252;2023-03-25T07:37:30;10.63;;;7.33;;
9260;SDS011;4667;42.726;23.252;2023-03-25T07:39:57;12.83;;;7.87;;
9260;SDS011;4667;42.726;23.252;2023-03-25T07:42:25;16.93;;;7.10;;
9260;SDS011;4667;42.726;23.252;2023-03-25T07:44:55;14.90;;;7.97;;
9260;SDS011;4667;42.726;23.252;2023-03-25T07:47:22;14.27;;;7.57;;
9260;SDS011;4667;42.726;23.252;2023-03-25T07:49:49;9.40;;;6.80;;
9260;SDS011;4667;42.726;23.252;2023-03-25T07:52:16;11.77;;;7.27;;
9260;SDS011;4667;42.726;23.252;2023-03-25T07:54:42;12.07;;;6.93;;
9260;SDS011;4667;42.726;23.252;2023-03-25T07:57:09;11.63;;;6.50;;
9260;SDS011;4667;42.726;23.252;2023-03-25T07:59:38;16.60;;;8.03;;
9260;SDS011;4667;42.726;23.252;2023-03-25T08:02:05;16.50;;;7.47;;
9260;SDS011;4667;42.726;23.252;2023-03-25T08:04:41;20.35;;;9.20;;
9260;SDS011;4667;42.726;23.252;2023-03-25T08:07:08;15.75;;;8.15;;
9260;SDS011;4667;42.726;23.252;2023-03-25T08:09:35;18.88;;;8.35;;
9260;SDS011;4667;42.726;23.252;2023-03-25T08:12:02;13.80;;;8.30;;
9260;SDS011;4667;42.726;23.252;2023-03-25T08:14:29;12.48;;;7.45;;
9260;SDS011;4667;42.726;23.252;2023-03-25T08:17:00;11.73;;;6.97;;
9260;SDS011;4667;42.726;23.252;2023-03-25T08:19:27;10.20;;;6.43;;
9260;SDS011;4667;42.726;23.252;2023-03-25T08:21:54;16.98;;;8.23;;
9260;SDS011;4667;42.726;23.252;2023-03-25T08:24:20;13.57;;;8.70;;
9260;SDS011;4667;42.726;23.252;2023-03-25T08:26:48;12.50;;;8.40;;
9260;SDS011;4667;42.726;23.252;2023-03-25T08:29:15;12.15;;;7.35;;
9260;SDS011;4667;42.726;23.252;2023-03-25T08:31:44;14.50;;;7.40;;
9260;SDS011;4667;42.726;23.252;2023-03-25T08:34:18;13.52;;;7.22;;
9260;SDS011;4667;42.726;23.252;2023-03-25T08:36:46;12.25;;;8.35;;
9260;SDS011;4667;42.726;23.252;2023-03-25T08:39:13;13.43;;;7.03;;
9260;SDS011;4667;42.726;23.252;2023-03-25T08:41:41;11.70;;;7.13;;
9260;SDS011;4667;42.726;23.252;2023-03-25T08:44:08;20.92;;;7.85;;
9260;SDS011;4667;42.726;23.252;2023-03-25T08:46:36;21.67;;;8.10;;
9260;SDS011;4667;42.726;23.252;2023-03-25T08:49:03;12.13;;;7.35;;
9260;SDS011;4667;42.726;23.252;2023-03-25T08:51:32;16.15;;;6.70;;
9260;SDS011;4667;42.726;23.252;2023-03-25T08:53:58;9.32;;;6.78;;
9260;SDS011;4667;42.726;23.252;2023-03-25T08:56:26;9.85;;;6.43;;
9260;SDS011;4667;42.726;23.252;2023-03-25T08:58:52;11.98;;;7.15;;
9260;SDS011;4667;42.726;23.252;2023-03-25T09:01:21;12.07;;;6.90;;
9260;SDS011;4667;42.726;23.252;2023-03-25T09:03:50;10.27;;;6.82;;
9260;SDS011;4667;42.726;23.252;2023-03-25T09:06:33;10.63;;;7.65;;
9260;SDS011;4667;42.726;23.252;2023-03-25T09:09:00;11.65;;;6.43;;
9260;SDS011;4667;42.726;23.252;2023-03-25T09:11:33;14.50;;;7.43;;
9260;SDS011;4667;42.726;23.252;2023-03-25T09:14:10;17.00;;;6.45;;
9260;SDS011;4667;42.726;23.252;2023-03-25T09:16:36;10.50;;;6.78;;
9260;SDS011;4667;42.726;23.252;2023-03-25T09:19:05;13.40;;;6.10;;
9260;SDS011;4667;42.726;23.252;2023-03-25T09:21:36;12.27;;;6.47;;
9260;SDS011;4667;42.726;23.252;2023-03-25T09:24:30;8.43;;;5.32;;
9260;SDS011;4667;42.726;23.252;2023-03-25T09:26:58;10.63;;;5.15;;
9260;SDS011;4667;42.726;23.252;2023-03-25T09:29:26;7.35;;;5.18;;
9260;SDS011;4667;42.726;23.252;2023-03-25T09:31:53;11.32;;;6.68;;
9260;SDS011;4667;42.726;23.252;2023-03-25T09:34:22;9.43;;;6.35;;
9260;SDS011;4667;42.726;23.252;2023-03-25T09:36:50;11.18;;;5.30;;
9260;SDS011;4667;42.726;23.252;2023-03-25T09:39:17;8.30;;;5.47;;
9260;SDS011;4667;42.726;23.252;2023-03-25T09:44:55;5.90;;;3.90;;
9260;SDS011;4667;42.726;23.252;2023-03-25T09:47:29;6.78;;;3.40;;
9260;SDS011;4667;42.726;23.252;2023-03-25T09:49:58;3.95;;;3.55;;
9260;SDS011;4667;42.726;23.252;2023-03-25T09:52:31;3.95;;;3.13;;
9260;SDS011;4667;42.726;23.252;2023-03-25T09:55:03;4.05;;;2.90;;
9260;SDS011;4667;42.726;23.252;2023-03-25T09:57:37;4.05;;;2.72;;
9260;SDS011;4667;42.726;23.252;2023-03-25T10:00:15;3.50;;;2.63;;
9260;SDS011;4667;42.726;23.252;2023-03-25T10:02:44;4.00;;;2.65;;
9260;SDS011;4667;42.726;23.252;2023-03-25T10:05:19;4.80;;;2.85;;
9260;SDS011;4667;42.726;23.252;2023-03-25T10:08:05;4.00;;;2.63;;
9260;SDS011;4667;42.726;23.252;2023-03-25T10:10:41;3.33;;;2.35;;
9260;SDS011;4667;42.726;23.252;2023-03-25T10:13:16;3.80;;;2.88;;
9260;SDS011;4667;42.726;23.252;2023-03-25T10:15:52;3.47;;;2.78;;
9260;SDS011;4667;42.726;23.252;2023-03-25T10:18:31;4.35;;;3.63;;
9260;SDS011;4667;42.726;23.252;2023-03-25T10:21:17;3.15;;;2.30;;
9260;SDS011;4667;42.726;23.252;2023-03-25T10:23:49;5.57;;;2.55;;
9260;SDS011;4667;42.726;23.252;2023-03-25T10:26:27;2.80;;;2.13;;
9260;SDS011;4667;42.726;23.252;2023-03-25T10:28:59;4.03;;;2.17;;
9260;SDS011;4667;42.726;23.252;2023-03-25T10:31:33;3.97;;;2.47;;
9260;SDS011;4667;42.726;23.252;2023-03-25T10:34:05;2.47;;;2.28;;
9260;SDS011;4667;42.726;23.252;2023-03-25T10:36:36;5.03;;;2.38;;
9260;SDS011;4667;42.726;23.252;2023-03-25T10:39:09;2.95;;;2.13;;
9260;SDS011;4667;42.726;23.252;2023-03-25T10:41:40;3.22;;;2.47;;
9260;SDS011;4667;42.726;23.252;2023-03-25T10:44:09;5.13;;;2.67;;
9260;SDS011;4667;42.726;23.252;2023-03-25T10:46:39;3.53;;;2.47;;
9260;SDS011;4667;42.726;23.252;2023-03-25T10:49:13;3.70;;;2.47;;
9260;SDS011;4667;42.726;23.252;2023-03-25T10:51:42;5.00;;;2.90;;
9260;SDS011;4667;42.726;23.252;2023-03-25T10:54:11;3.72;;;2.55;;
9260;SDS011;4667;42.726;23.252;2023-03-25T10:56:41;2.67;;;2.35;;
9260;SDS011;4667;42.726;23.252;2023-03-25T10:59:13;3.60;;;2.28;;
9260;SDS011;4667;42.726;23.252;2023-03-25T11:01:45;5.05;;;1.77;;
9260;SDS011;4667;42.726;23.252;2023-03-25T11:04:14;2.90;;;1.90;;
9260;SDS011;4667;42.726;23.252;2023-03-25T11:06:44;2.78;;;1.88;;
9260;SDS011;4667;42.726;23.252;2023-03-25T11:09:21;2.20;;;2.00;;
9260;SDS011;4667;42.726;23.252;2023-03-25T11:11:50;2.58;;;1.90;;
9260;SDS011;4667;42.726;23.252;2023-03-25T11:14:20;3.03;;;2.20;;
9260;SDS011;4667;42.726;23.252;2023-03-25T11:16:51;3.35;;;1.95;;
9260;SDS011;4667;42.726;23.252;2023-03-25T11:19:23;2.45;;;1.77;;
9260;SDS011;4667;42.726;23.252;2023-03-25T11:21:52;3.45;;;1.92;;
9260;SDS011;4667;42.726;23.252;2023-03-25T11:24:22;2.30;;;1.67;;
9260;SDS011;4667;42.726;23.252;2023-03-25T11:26:55;2.30;;;1.60;;
9260;SDS011;4667;42.726;23.252;2023-03-25T11:29:23;2.78;;;2.22;;
9260;SDS011;4667;42.726;23.252;2023-03-25T11:31:55;2.63;;;2.00;;
9260;SDS011;4667;42.726;23.252;2023-03-25T11:34:24;2.33;;;1.88;;
9260;SDS011;4667;42.726;23.252;2023-03-25T11:36:52;2.35;;;1.90;;
9260;SDS011;4667;42.726;23.252;2023-03-25T11:39:28;2.72;;;2.13;;
9260;SDS011;4667;42.726;23.252;2023-03-25T11:41:58;3.65;;;1.95;;
9260;SDS011;4667;42.726;23.252;2023-03-25T11:44:39;4.45;;;2.40;;
9260;SDS011;4667;42.726;23.252;2023-03-25T11:47:07;3.15;;;2.03;;
9260;SDS011;4667;42.726;23.252;2023-03-25T11:49:36;5.50;;;3.58;;
9260;SDS011;4667;42.726;23.252;2023-03-25T11:52:06;3.83;;;2.60;;
9260;SDS011;4667;42.726;23.252;2023-03-25T11:54:35;2.63;;;2.40;;
9260;SDS011;4667;42.726;23.252;2023-03-25T11:57:03;4.07;;;2.72;;
9260;SDS011;4667;42.726;23.252;2023-03-25T11:59:34;4.47;;;2.53;;
9260;SDS011;4667;42.726;23.252;2023-03-25T12:02:09;2.85;;;1.95;;
9260;SDS011;4667;42.726;23.252;2023-03-25T12:04:53;5.20;;;2.25;;
9260;SDS011;4667;42.726;23.252;2023-03-25T12:07:21;4.40;;;2.15;;
9260;SDS011;4667;42.726;23.252;2023-03-25T12:09:54;4.53;;;3.15;;
9260;SDS011;4667;42.726;23.252;2023-03-25T12:12:25;2.97;;;1.98;;
9260;SDS011;4667;42.726;23.252;2023-03-25T12:15:02;5.10;;;2.22;;
9260;SDS011;4667;42.726;23.252;2023-03-25T12:17:41;2.65;;;1.85;;
9260;SDS011;4667;42.726;23.252;2023-03-25T12:20:21;2.42;;;1.80;;
9260;SDS011;4667;42.726;23.252;2023-03-25T12:23:00;3.30;;;2.20;;
9260;SDS011;4667;42.726;23.252;2023-03-25T12:25:34;4.45;;;1.80;;
9260;SDS011;4667;42.726;23.252;2023-03-25T12:28:29;3.70;;;2.17;;
9260;SDS011;4667;42.726;23.252;2023-03-25T12:31:06;2.45;;;2.20;;
9260;SDS011;4667;42.726;23.252;2023-03-25T12:33:43;3.72;;;2.38;;
9260;SDS011;4667;42.726;23.252;2023-03-25T12:36:18;4.22;;;2.60;;
9260;SDS011;4667;42.726;23.252;2023-03-25T12:39:00;5.32;;;2.50;;
9260;SDS011;4667;42.726;23.252;2023-03-25T12:41:40;4.60;;;1.92;;
9260;SDS011;4667;42.726;23.252;2023-03-25T12:44:18;2.05;;;1.85;;
9260;SDS011;4667;42.726;23.252;2023-03-25T12:47:10;4.43;;;2.35;;
9260;SDS011;4667;42.726;23.252;2023-03-25T12:49:50;4.00;;;2.50;;
9260;SDS011;4667;42.726;23.252;2023-03-25T12:52:35;3.00;;;2.03;;
9260;SDS011;4667;42.726;23.252;2023-03-25T12:55:16;2.53;;;1.95;;
9260;SDS011;4667;42.726;23.252;2023-03-25T12:58:00;2.72;;;1.88;;
9260;SDS011;4667;42.726;23.252;2023-03-25T13:00:41;2.08;;;1.95;;
9260;SDS011;4667;42.726;23.252;2023-03-25T13:03:23;2.75;;;1.90;;
9260;SDS011;4667;42.726;23.252;2023-03-25T13:06:14;2.22;;;1.90;;
9260;SDS011;4667;42.726;23.252;2023-03-25T13:08:49;2.65;;;2.03;;
9260;SDS011;4667;42.726;23.252;2023-03-25T13:11:20;2.38;;;1.77;;
9260;SDS011;4667;42.726;23.252;2023-03-25T13:13:52;4.80;;;3.00;;
9260;SDS011;4667;42.726;23.252;2023-03-25T13:16:23;2.83;;;2.42;;
9260;SDS011;4667;42.726;23.252;2023-03-25T13:18:53;2.42;;;2.20;;
9260;SDS011;4667;42.726;23.252;2023-03-25T13:21:26;4.57;;;1.90;;
9260;SDS011;4667;42.726;23.252;2023-03-25T13:23:56;2.35;;;1.75;;
9260;SDS011;4667;42.726;23.252;2023-03-25T13:26:26;2.67;;;2.40;;
9260;SDS011;4667;42.726;23.252;2023-03-25T13:29:00;2.17;;;1.80;;
9260;SDS011;4667;42.726;23.252;2023-03-25T13:31:30;7.30;;;2.33;;
9260;SDS011;4667;42.726;23.252;2023-03-25T13:34:05;5.90;;;2.35;;
9260;SDS011;4667;42.726;23.252;2023-03-25T13:36:46;4.20;;;2.60;;
9260;SDS011;4667;42.726;23.252;2023-03-25T13:39:19;2.92;;;2.08;;
9260;SDS011;4667;42.726;23.252;2023-03-25T13:41:51;2.70;;;2.13;;
9260;SDS011;4667;42.726;23.252;2023-03-25T13:44:27;4.28;;;2.25;;
9260;SDS011;4667;42.726;23.252;2023-03-25T13:47:02;3.85;;;2.10;;
9260;SDS011;4667;42.726;23.252;2023-03-25T13:49:35;3.60;;;2.10;;
9260;SDS011;4667;42.726;23.252;2023-03-25T13:52:07;3.47;;;2.17;;
9260;SDS011;4667;42.726;23.252;2023-03-25T13:54:35;2.25;;;2.05;;
9260;SDS011;4667;42.726;23.252;2023-03-25T13:57:15;4.13;;;2.42;;
9260;SDS011;4667;42.726;23.252;2023-03-25T14:03:22;2.10;;;1.73;;
9260;SDS011;4667;42.726;23.252;2023-03-25T14:06:07;4.38;;;2.28;;
9260;SDS011;4667;42.726;23.252;2023-03-25T14:12:10;3.03;;;2.40;;
9260;SDS011;4667;42.726;23.252;2023-03-25T14:14:43;2.70;;;1.90;;
9260;SDS011;4667;42.726;23.252;2023-03-25T14:17:15;2.20;;;2.00;;
9260;SDS011;4667;42.726;23.252;2023-03-25T14:19:46;2.63;;;2.20;;
9260;SDS011;4667;42.726;23.252;2023-03-25T14:22:20;2.53;;;2.20;;
9260;SDS011;4667;42.726;23.252;2023-03-25T14:24:56;2.70;;;1.67;;
9260;SDS011;4667;42.726;23.252;2023-03-25T14:27:46;5.83;;;3.23;;
9260;SDS011;4667;42.726;23.252;2023-03-25T14:30:17;2.93;;;2.40;;
9260;SDS011;4667;42.726;23.252;2023-03-25T14:32:59;2.13;;;1.83;;
9260;SDS011;4667;42.726;23.252;2023-03-25T14:35:43;4.03;;;2.40;;
9260;SDS011;4667;42.726;23.252;2023-03-25T14:44:25;6.83;;;3.27;;
9260;SDS011;4667;42.726;23.252;2023-03-25T14:50:28;4.30;;;2.60;;
9260;SDS011;4667;42.726;23.252;2023-03-25T14:53:02;3.83;;;2.43;;
9260;SDS011;4667;42.726;23.252;2023-03-25T14:55:32;3.77;;;2.60;;
9260;SDS011;4667;42.726;23.252;2023-03-25T14:58:13;5.03;;;2.83;;
9260;SDS011;4667;42.726;23.252;2023-03-25T15:00:52;7.47;;;3.03;;
9260;SDS011;4667;42.726;23.252;2023-03-25T15:03:27;3.87;;;2.53;;
9260;SDS011;4667;42.726;23.252;2023-03-25T15:06:03;2.60;;;2.17;;
9260;SDS011;4667;42.726;23.252;2023-03-25T15:08:33;3.17;;;2.40;;
9260;SDS011;4667;42.726;23.252;2023-03-25T15:11:07;2.93;;;2.40;;
9260;SDS011;4667;42.726;23.252;2023-03-25T15:13:45;3.83;;;2.60;;
9260;SDS011;4667;42.726;23.252;2023-03-25T15:16:30;2.90;;;2.57;;
9260;SDS011;4667;42.726;23.252;2023-03-25T15:19:05;4.10;;;2.63;;
9260;SDS011;4667;42.726;23.252;2023-03-25T15:22:03;3.50;;;2.47;;
9260;SDS011;4667;42.726;23.252;2023-03-25T15:24:36;2.87;;;2.53;;
9260;SDS011;4667;42.726;23.252;2023-03-25T15:27:07;5.15;;;2.97;;
9260;SDS011;4667;42.726;23.252;2023-03-25T15:29:47;4.72;;;3.03;;
9260;SDS011;4667;42.726;23.252;2023-03-25T15:32:31;3.90;;;2.97;;
9260;SDS011;4667;42.726;23.252;2023-03-25T15:35:30;9.65;;;3.55;;
9260;SDS011;4667;42.726;23.252;2023-03-25T15:38:06;8.07;;;3.45;;
9260;SDS011;4667;42.726;23.252;2023-03-25T15:41:00;8.17;;;3.93;;
9260;SDS011;4667;42.726;23.252;2023-03-25T15:43:38;7.73;;;4.10;;
9260;SDS011;4667;42.726;23.252;2023-03-25T15:52:33;7.32;;;5.32;;
9260;SDS011;4667;42.726;23.252;2023-03-25T15:55:16;7.97;;;4.75;;
9260;SDS011;4667;42.726;23.252;2023-03-25T15:57:50;7.50;;;4.95;;
9260;SDS011;4667;42.726;23.252;2023-03-25T16:00:21;8.65;;;5.38;;
9260;SDS011;4667;42.726;23.252;2023-03-25T16:02:57;8.68;;;6.63;;
9260;SDS011;4667;42.726;23.252;2023-03-25T16:05:31;10.43;;;6.55;;
9260;SDS011;4667;42.726;23.252;2023-03-25T16:10:56;7.93;;;5.50;;
9260;SDS011;4667;42.726;23.252;2023-03-25T16:13:24;11.20;;;5.60;;
9260;SDS011;4667;42.726;23.252;2023-03-25T16:15:52;6.75;;;5.50;;
9260;SDS011;4667;42.726;23.252;2023-03-25T16:18:22;12.40;;;5.20;;
9260;SDS011;4667;42.726;23.252;2023-03-25T16:20:52;5.77;;;4.07;;
9260;SDS011;4667;42.726;23.252;2023-03-25T16:23:21;11.77;;;5.43;;
9260;SDS011;4667;42.726;23.252;2023-03-25T16:25:51;9.27;;;5.17;;